createdAt,value
2023-05-05T00:01:37.865Z,64.11
2023-05-05T00:04:05.269Z,64.37
2023-05-05T00:06:32.560Z,64.20
2023-05-05T00:08:59.853Z,64.52
2023-05-05T00:11:27.112Z,65.14
2023-05-05T00:13:54.394Z,65.54
2023-05-05T00:16:23.298Z,65.31
2023-05-05T00:18:50.897Z,65.57
2023-05-05T00:21:18.157Z,65.46
2023-05-05T00:23:45.497Z,65.52
2023-05-05T00:26:13.098Z,65.84
2023-05-05T00:28:40.554Z,66.62
2023-05-05T00:31:08.567Z,66.46
2023-05-05T00:33:35.935Z,66.74
2023-05-05T00:36:03.314Z,67.70
2023-05-05T00:38:30.649Z,67.80
2023-05-05T00:40:57.864Z,67.57
2023-05-05T00:43:27.640Z,66.76
2023-05-05T00:46:12.506Z,65.72
2023-05-05T00:48:40.023Z,66.57
2023-05-05T00:51:09.418Z,67.30
2023-05-05T00:53:39.111Z,67.84
2023-05-05T00:56:06.791Z,68.28
2023-05-05T00:58:34.049Z,67.68
2023-05-05T01:01:01.706Z,68.24
2023-05-05T01:03:29.811Z,68.41
2023-05-05T01:06:08.267Z,68.84
2023-05-05T01:08:54.113Z,69.01
2023-05-05T01:11:27.255Z,69.34
2023-05-05T01:14:09.910Z,69.86
2023-05-05T01:16:37.471Z,69.46
2023-05-05T01:19:26.543Z,70.95
2023-05-05T01:22:00.712Z,71.43
2023-05-05T01:24:56.625Z,71.60
2023-05-05T01:27:34.503Z,71.04
2023-05-05T01:30:38.726Z,71.15
2023-05-05T01:33:08.524Z,71.16
2023-05-05T01:35:44.274Z,71.22
2023-05-05T01:38:19.314Z,70.77
2023-05-05T01:41:00.906Z,69.30
2023-05-05T01:43:28.914Z,69.45
2023-05-05T01:45:56.127Z,70.42
2023-05-05T01:48:23.472Z,71.14
2023-05-05T01:50:50.691Z,71.26
2023-05-05T01:53:17.957Z,70.94
2023-05-05T01:55:45.216Z,70.61
2023-05-05T01:58:12.517Z,70.03
2023-05-05T02:00:39.727Z,70.64
2023-05-05T02:03:08.024Z,71.49
2023-05-05T02:05:35.833Z,71.42
2023-05-05T02:08:03.209Z,71.24
2023-05-05T02:10:30.528Z,71.78
2023-05-05T02:12:59.251Z,71.22
2023-05-05T02:15:26.523Z,71.49
2023-05-05T02:17:54.008Z,71.37
2023-05-05T02:20:22.190Z,71.05
2023-05-05T02:22:49.524Z,71.44
2023-05-05T02:25:18.071Z,71.43
2023-05-05T02:27:46.489Z,71.65
2023-05-05T02:30:14.880Z,71.92
2023-05-05T02:32:46.298Z,73.06
2023-05-05T02:35:16.022Z,73.50
2023-05-05T02:37:48.285Z,74.04
2023-05-05T02:40:18.050Z,74.19
2023-05-05T02:42:46.699Z,74.02
2023-05-05T02:45:17.800Z,74.01
2023-05-05T02:47:48.413Z,74.07
2023-05-05T02:50:16.032Z,74.47
2023-05-05T02:52:51.816Z,74.63
2023-05-05T02:55:21.704Z,74.38
2023-05-05T02:58:19.018Z,74.17
2023-05-05T03:01:25.405Z,74.14
2023-05-05T03:04:07.948Z,73.82
2023-05-05T03:06:43.776Z,72.94
2023-05-05T03:09:21.302Z,73.32
2023-05-05T03:12:02.074Z,73.84
2023-05-05T03:14:33.277Z,74.48
2023-05-05T03:17:01.070Z,74.54
2023-05-05T03:19:28.380Z,74.58
2023-05-05T03:22:00.121Z,74.03
2023-05-05T03:24:28.645Z,73.78
2023-05-05T03:27:04.450Z,73.31
2023-05-05T03:29:36.386Z,73.41
2023-05-05T03:32:06.085Z,73.49
2023-05-05T03:34:35.933Z,73.39
2023-05-05T03:37:03.830Z,73.50
2023-05-05T03:39:31.280Z,73.74
2023-05-05T03:41:59.255Z,73.76
2023-05-05T03:44:30.649Z,73.62
2023-05-05T03:46:58.026Z,73.15
2023-05-05T03:49:26.107Z,73.47
2023-05-05T03:51:53.775Z,74.15
2023-05-05T03:54:21.034Z,74.11
2023-05-05T03:56:48.364Z,74.31
2023-05-05T03:59:16.032Z,74.33
2023-05-05T04:01:45.172Z,74.50
2023-05-05T04:04:12.739Z,74.33
2023-05-05T04:06:40.053Z,74.42
2023-05-05T04:09:08.120Z,74.22
2023-05-05T04:11:36.285Z,73.62
2023-05-05T04:14:03.823Z,73.46
2023-05-05T04:16:31.337Z,73.67
2023-05-05T04:18:59.634Z,73.26
2023-05-05T04:21:27.655Z,73.01
2023-05-05T04:23:55.733Z,73.18
2023-05-05T04:26:23.311Z,72.24
2023-05-05T04:28:51.270Z,72.51
2023-05-05T04:31:19.342Z,72.85
2023-05-05T04:33:47.212Z,72.85
2023-05-05T04:36:15.070Z,72.34
2023-05-05T04:38:42.454Z,71.59
2023-05-05T04:41:10.120Z,71.83
2023-05-05T04:43:39.069Z,71.91
2023-05-05T04:46:06.547Z,71.91
2023-05-05T04:48:37.970Z,71.39
2023-05-05T04:51:06.331Z,71.58
2023-05-05T04:53:33.777Z,71.17
2023-05-05T04:56:01.708Z,71.76
2023-05-05T04:58:29.291Z,72.05
2023-05-05T05:00:56.840Z,71.47
2023-05-05T05:03:24.094Z,72.45
2023-05-05T05:05:52.487Z,71.81
2023-05-05T05:08:20.361Z,71.38
2023-05-05T05:10:47.860Z,71.51
2023-05-05T05:13:15.417Z,70.58
2023-05-05T05:15:44.174Z,71.49
2023-05-05T05:18:12.203Z,71.76
2023-05-05T05:20:40.140Z,70.28
2023-05-05T05:23:07.938Z,70.24
2023-05-05T05:25:39.697Z,70.23
2023-05-05T05:28:10.691Z,70.43
2023-05-05T05:30:44.263Z,69.73
2023-05-05T05:33:12.454Z,68.84
2023-05-05T05:35:40.773Z,68.92
2023-05-05T05:38:09.911Z,68.40
2023-05-05T05:40:37.577Z,69.30
2023-05-05T05:43:09.176Z,69.41
2023-05-05T05:45:37.941Z,70.34
2023-05-05T05:48:07.299Z,68.88
2023-05-05T05:50:36.006Z,68.56
2023-05-05T05:53:03.970Z,68.80
2023-05-05T05:55:31.757Z,67.21
2023-05-05T05:57:59.669Z,66.94
2023-05-05T06:00:27.539Z,67.12
2023-05-05T06:03:02.397Z,65.95
2023-05-05T06:05:33.230Z,64.68
2023-05-05T06:08:01.123Z,64.39
2023-05-05T06:10:30.838Z,64.67
2023-05-05T06:13:03.902Z,64.99
2023-05-05T06:15:34.486Z,63.94
2023-05-05T06:18:04.197Z,64.01
2023-05-05T06:20:32.083Z,63.95
2023-05-05T06:23:07.313Z,63.73
2023-05-05T06:25:38.637Z,63.54
2023-05-05T06:28:06.200Z,64.18
2023-05-05T06:30:33.904Z,63.86
2023-05-05T06:33:04.813Z,63.98
2023-05-05T06:35:32.890Z,63.03
2023-05-05T06:38:01.063Z,56.08
2023-05-05T06:40:29.273Z,50.27
2023-05-05T06:42:57.073Z,46.68
2023-05-05T06:45:31.648Z,42.70
2023-05-05T06:48:01.506Z,41.03
2023-05-05T06:50:29.790Z,39.70
2023-05-05T06:52:57.629Z,40.46
2023-05-05T06:55:25.581Z,42.90
2023-05-05T06:57:52.980Z,42.95
2023-05-05T07:00:22.401Z,42.23
2023-05-05T07:02:52.374Z,41.76
2023-05-05T07:05:20.180Z,41.28
2023-05-05T07:07:57.493Z,39.37
2023-05-05T07:10:24.969Z,39.42
2023-05-05T07:12:52.684Z,36.81
2023-05-05T07:15:28.534Z,37.06
2023-05-05T07:17:58.073Z,38.30
2023-05-05T07:20:25.990Z,37.27
2023-05-05T07:22:53.420Z,36.88
2023-05-05T07:25:21.375Z,35.71
2023-05-05T07:27:49.247Z,36.78
2023-05-05T07:30:18.809Z,37.65
2023-05-05T07:32:48.058Z,40.04
2023-05-05T07:35:15.680Z,39.42
2023-05-05T07:37:44.001Z,39.68
2023-05-05T07:40:11.950Z,40.54
2023-05-05T07:42:39.565Z,40.41
2023-05-05T07:45:07.519Z,38.56
2023-05-05T07:47:38.359Z,40.39
2023-05-05T07:50:06.599Z,41.52
2023-05-05T07:52:45.272Z,39.30
2023-05-05T07:55:15.762Z,37.67
2023-05-05T07:57:43.411Z,35.30
2023-05-05T08:00:19.371Z,35.61
2023-05-05T08:02:48.099Z,35.42
2023-05-05T08:05:16.610Z,35.06
2023-05-05T08:07:44.394Z,35.71
2023-05-05T08:10:12.523Z,35.63
2023-05-05T08:12:41.092Z,34.44
2023-05-05T08:15:18.433Z,34.61
2023-05-05T08:17:49.954Z,35.24
2023-05-05T08:20:18.746Z,36.52
2023-05-05T08:22:46.609Z,36.89
2023-05-05T08:25:14.317Z,37.91
2023-05-05T08:27:45.187Z,36.22
2023-05-05T08:30:17.624Z,35.39
2023-05-05T08:32:45.180Z,37.07
2023-05-05T08:35:13.137Z,38.85
2023-05-05T08:37:46.372Z,40.16
2023-05-05T08:40:19.485Z,39.75
2023-05-05T08:42:47.635Z,40.15
2023-05-05T08:45:16.213Z,39.82
2023-05-05T08:47:45.219Z,40.49
2023-05-05T08:50:12.594Z,40.94
2023-05-05T08:52:42.019Z,43.67
2023-05-05T08:55:12.758Z,44.71
2023-05-05T08:57:51.768Z,45.72
2023-05-05T09:00:20.327Z,46.34
2023-05-05T09:02:54.100Z,46.92
2023-05-05T09:05:26.000Z,48.10
2023-05-05T09:08:25.993Z,48.03
2023-05-05T09:11:03.602Z,47.31
2023-05-05T09:13:31.975Z,47.67
2023-05-05T09:15:59.826Z,48.29
2023-05-05T09:18:27.578Z,47.64
2023-05-05T09:20:59.567Z,47.70
2023-05-05T09:23:27.127Z,47.19
2023-05-05T09:26:09.380Z,47.46
2023-05-05T09:28:37.497Z,46.77
2023-05-05T09:31:17.632Z,46.72
2023-05-05T09:33:45.486Z,45.99
2023-05-05T09:36:13.071Z,46.11
2023-05-05T09:38:47.135Z,43.01
2023-05-05T09:41:15.739Z,43.91
2023-05-05T09:43:51.246Z,44.56
2023-05-05T09:46:21.853Z,44.49
2023-05-05T09:48:49.762Z,44.61
2023-05-05T09:51:17.444Z,44.24
2023-05-05T09:53:47.505Z,44.77
2023-05-05T09:56:15.004Z,44.51
2023-05-05T09:58:42.839Z,44.62
2023-05-05T10:01:21.878Z,44.56
2023-05-05T10:03:52.648Z,43.86
2023-05-05T10:06:20.048Z,44.07
2023-05-05T10:08:47.482Z,42.99
2023-05-05T10:11:14.851Z,43.53
2023-05-05T10:13:43.167Z,42.82
2023-05-05T10:16:10.464Z,43.05
2023-05-05T10:18:38.116Z,42.93
2023-05-05T10:21:06.087Z,42.56
2023-05-05T10:23:40.787Z,41.04
2023-05-05T10:26:10.560Z,40.65
2023-05-05T10:28:48.708Z,40.47
2023-05-05T10:32:00.682Z,39.35
2023-05-05T10:34:45.402Z,39.77
2023-05-05T10:37:16.448Z,39.92
2023-05-05T10:39:45.297Z,41.20
2023-05-05T10:42:13.862Z,39.46
2023-05-05T10:44:41.441Z,40.80
2023-05-05T10:47:09.177Z,38.89
2023-05-05T10:50:02.146Z,38.56
2023-05-05T10:52:42.487Z,38.19
2023-05-05T10:55:44.799Z,38.72
2023-05-05T10:58:59.012Z,38.16
2023-05-05T11:01:33.113Z,38.56
2023-05-05T11:04:23.162Z,37.88
2023-05-05T11:07:10.476Z,37.95
2023-05-05T11:10:04.075Z,38.32
2023-05-05T11:12:53.350Z,37.88
2023-05-05T11:15:30.419Z,37.62
2023-05-05T11:17:58.618Z,38.01
2023-05-05T11:20:40.984Z,38.05
2023-05-05T11:23:08.406Z,38.95
2023-05-05T11:25:40.875Z,38.84
2023-05-05T11:28:16.536Z,37.46
2023-05-05T11:30:59.481Z,38.22
2023-05-05T11:33:31.779Z,36.99
2023-05-05T11:36:06.016Z,37.40
2023-05-05T11:38:39.684Z,38.40
2023-05-05T11:41:23.634Z,39.04
2023-05-05T11:43:51.009Z,38.18
2023-05-05T11:46:18.401Z,38.00
2023-05-05T11:48:49.550Z,38.05
2023-05-05T11:51:17.986Z,38.33
2023-05-05T11:53:46.386Z,38.29
2023-05-05T11:56:19.119Z,38.46
2023-05-05T11:58:47.229Z,38.97
2023-05-05T12:01:14.793Z,38.41
2023-05-05T12:03:42.354Z,38.50
2023-05-05T12:06:09.974Z,37.86
2023-05-05T12:08:37.998Z,38.37
2023-05-05T12:11:07.685Z,37.95
2023-05-05T12:13:35.023Z,38.13
2023-05-05T12:16:12.943Z,37.42
2023-05-05T12:18:40.691Z,37.01
2023-05-05T12:21:18.094Z,37.28
2023-05-05T12:23:45.558Z,38.11
2023-05-05T12:26:31.463Z,37.23
2023-05-05T12:28:59.811Z,37.12
2023-05-05T12:31:37.113Z,36.86
2023-05-05T12:34:05.150Z,37.64
2023-05-05T12:36:38.902Z,36.54
2023-05-05T12:39:06.418Z,36.84
2023-05-05T12:41:34.024Z,37.27
2023-05-05T12:44:03.063Z,36.82
2023-05-05T12:46:31.912Z,36.30
2023-05-05T12:49:05.376Z,35.83
2023-05-05T12:51:33.356Z,36.52
2023-05-05T12:54:08.167Z,36.58
2023-05-05T12:56:43.682Z,36.58
2023-05-05T12:59:23.353Z,36.20
2023-05-05T13:01:58.128Z,35.74
2023-05-05T13:04:26.360Z,35.20
2023-05-05T13:07:11.646Z,34.96
2023-05-05T13:09:39.158Z,35.32
2023-05-05T13:12:08.520Z,35.33
2023-05-05T13:14:36.464Z,34.43
2023-05-05T13:17:03.886Z,33.92
2023-05-05T13:19:31.254Z,34.33
2023-05-05T13:21:58.807Z,33.53
2023-05-05T13:24:38.605Z,33.67
2023-05-05T13:27:10.003Z,35.77
2023-05-05T13:29:37.336Z,35.31
2023-05-05T13:32:04.800Z,35.29
2023-05-05T13:34:32.043Z,34.19
2023-05-05T13:36:59.435Z,34.64
2023-05-05T13:39:26.729Z,34.47
2023-05-05T13:41:54.137Z,34.85
2023-05-05T13:44:22.073Z,34.30
2023-05-05T13:46:49.403Z,34.24
2023-05-05T13:49:16.937Z,34.35
2023-05-05T13:51:45.244Z,35.30
2023-05-05T13:54:12.611Z,35.97
2023-05-05T13:56:39.958Z,35.40
2023-05-05T13:59:07.202Z,38.10
2023-05-05T14:01:34.744Z,39.85
2023-05-05T14:04:05.176Z,39.28
2023-05-05T14:06:33.776Z,39.89
2023-05-05T14:09:01.500Z,39.03
2023-05-05T14:11:28.996Z,39.56
2023-05-05T14:13:56.729Z,38.78
2023-05-05T14:16:24.015Z,38.85
2023-05-05T14:18:51.350Z,39.10
2023-05-05T14:21:18.696Z,39.23
2023-05-05T14:23:45.961Z,38.62
2023-05-05T14:26:13.307Z,39.42
2023-05-05T14:28:40.726Z,39.52
2023-05-05T14:31:08.004Z,39.31
2023-05-05T14:33:35.216Z,39.53
2023-05-05T14:36:02.526Z,39.09
2023-05-05T14:38:29.994Z,38.90
2023-05-05T14:40:57.338Z,39.10
2023-05-05T14:43:24.566Z,39.86
2023-05-05T14:45:52.696Z,40.03
2023-05-05T14:48:22.395Z,39.94
2023-05-05T14:50:50.124Z,39.42
2023-05-05T14:53:19.120Z,39.92
2023-05-05T14:55:46.505Z,39.13
2023-05-05T14:58:13.775Z,38.53
2023-05-05T15:00:41.105Z,39.67
2023-05-05T15:03:08.454Z,39.59
2023-05-05T15:05:35.813Z,39.74
2023-05-05T15:08:02.998Z,39.29
2023-05-05T15:10:30.342Z,40.47
2023-05-05T15:12:57.637Z,40.89
2023-05-05T15:15:24.924Z,40.66
2023-05-05T15:17:52.531Z,40.94
2023-05-05T15:20:19.887Z,40.39
2023-05-05T15:22:49.021Z,40.73
2023-05-05T15:25:18.807Z,40.16
2023-05-05T15:27:46.113Z,40.38
2023-05-05T15:30:14.233Z,40.86
2023-05-05T15:32:41.728Z,39.78
2023-05-05T15:35:09.247Z,40.14
2023-05-05T15:37:37.877Z,39.75
2023-05-05T15:40:05.881Z,39.87
2023-05-05T15:42:33.866Z,39.86
2023-05-05T15:45:01.140Z,39.43
2023-05-05T15:47:28.529Z,39.90
2023-05-05T15:49:55.920Z,39.88
2023-05-05T15:52:23.171Z,40.23
2023-05-05T15:54:50.446Z,40.43
2023-05-05T15:57:17.656Z,40.59
2023-05-05T15:59:45.017Z,40.34
2023-05-05T16:02:12.517Z,40.29
2023-05-05T16:04:43.380Z,40.35
2023-05-05T16:07:11.400Z,40.48
2023-05-05T16:09:40.582Z,40.61
2023-05-05T16:12:08.049Z,41.27
2023-05-05T16:14:35.417Z,40.52
2023-05-05T16:17:02.878Z,41.02
2023-05-05T16:19:31.249Z,40.95
2023-05-05T16:21:58.538Z,41.01
2023-05-05T16:24:25.743Z,41.25
2023-05-05T16:26:53.144Z,40.59
2023-05-05T16:29:20.755Z,41.06
2023-05-05T16:31:48.112Z,41.37
2023-05-05T16:34:16.525Z,41.46
2023-05-05T16:36:44.573Z,41.35
2023-05-05T16:39:12.050Z,42.27
2023-05-05T16:41:39.916Z,41.96
2023-05-05T16:44:07.210Z,42.94
2023-05-05T16:46:37.714Z,42.74
2023-05-05T16:49:05.265Z,42.70
2023-05-05T16:51:32.484Z,42.73
2023-05-05T16:53:59.837Z,42.73
2023-05-05T16:56:27.060Z,42.75
2023-05-05T16:58:54.402Z,42.91
2023-05-05T17:01:21.663Z,43.06
2023-05-05T17:03:48.984Z,43.02
2023-05-05T17:06:16.256Z,43.08
2023-05-05T17:08:43.708Z,43.45
2023-05-05T17:11:11.832Z,43.51
2023-05-05T17:13:39.265Z,43.91
2023-05-05T17:16:06.756Z,44.11
2023-05-05T17:18:34.286Z,43.93
2023-05-05T17:21:01.550Z,44.27
2023-05-05T17:23:28.848Z,44.47
2023-05-05T17:25:56.110Z,44.57
2023-05-05T17:28:23.438Z,45.06
2023-05-05T17:30:50.660Z,45.71
2023-05-05T17:33:21.432Z,45.72
2023-05-05T17:35:48.721Z,45.67
2023-05-05T17:38:15.958Z,46.15
2023-05-05T17:40:43.421Z,46.47
2023-05-05T17:43:10.703Z,46.70
2023-05-05T17:45:38.072Z,46.96
2023-05-05T17:48:05.699Z,47.61
2023-05-05T17:50:33.039Z,47.87
2023-05-05T17:53:00.248Z,48.36
2023-05-05T17:55:37.831Z,48.03
2023-05-05T17:58:05.245Z,48.43
2023-05-05T18:00:32.467Z,48.39
2023-05-05T18:03:01.086Z,48.85
2023-05-05T18:05:28.578Z,48.59
2023-05-05T18:07:55.902Z,48.73
2023-05-05T18:10:23.435Z,48.80
2023-05-05T18:12:50.859Z,49.24
2023-05-05T18:15:18.054Z,49.63
2023-05-05T18:17:45.434Z,49.45
2023-05-05T18:20:12.780Z,49.89
2023-05-05T18:22:40.143Z,50.14
2023-05-05T18:25:08.344Z,50.10
2023-05-05T18:27:36.150Z,50.21
2023-05-05T18:30:04.905Z,50.44
2023-05-05T18:32:32.635Z,50.38
2023-05-05T18:34:59.810Z,50.73
2023-05-05T18:37:28.020Z,50.91
2023-05-05T18:39:55.232Z,50.93
2023-05-05T18:42:22.678Z,51.11
2023-05-05T18:44:50.074Z,51.27
2023-05-05T18:47:17.440Z,51.70
2023-05-05T18:49:45.494Z,51.59
2023-05-05T18:52:13.601Z,51.85
2023-05-05T18:54:41.053Z,52.33
2023-05-05T18:57:08.391Z,52.42
2023-05-05T18:59:35.597Z,52.44
2023-05-05T19:02:03.003Z,53.37
2023-05-05T19:04:31.746Z,53.44
2023-05-05T19:06:59.691Z,53.57
2023-05-05T19:09:27.121Z,53.58
2023-05-05T19:11:54.411Z,53.73
2023-05-05T19:14:22.232Z,53.90
2023-05-05T19:16:49.595Z,54.21
2023-05-05T19:19:17.194Z,54.71
2023-05-05T19:21:44.643Z,55.32
2023-05-05T19:24:11.890Z,56.02
2023-05-05T19:26:39.217Z,56.18
2023-05-05T19:29:06.532Z,55.60
2023-05-05T19:31:33.920Z,56.00
2023-05-05T19:34:02.078Z,56.55
2023-05-05T19:36:32.754Z,56.93
2023-05-05T19:39:01.843Z,56.32
2023-05-05T19:41:30.583Z,56.14
2023-05-05T19:43:57.952Z,56.81
2023-05-05T19:46:26.528Z,57.19
2023-05-05T19:48:54.015Z,57.32
2023-05-05T19:51:21.389Z,57.33
2023-05-05T19:53:48.751Z,57.73
2023-05-05T19:56:17.207Z,58.13
2023-05-05T19:58:59.035Z,57.30
2023-05-05T20:01:27.241Z,57.84
2023-05-05T20:03:55.571Z,57.89
2023-05-05T20:06:23.071Z,58.26
2023-05-05T20:08:50.261Z,58.41
2023-05-05T20:11:17.745Z,58.83
2023-05-05T20:13:45.155Z,57.79
2023-05-05T20:16:12.660Z,58.28
2023-05-05T20:18:40.382Z,58.34
2023-05-05T20:21:07.744Z,58.72
2023-05-05T20:23:35.118Z,58.61
2023-05-05T20:26:02.613Z,58.90
2023-05-05T20:28:31.673Z,58.45
2023-05-05T20:31:00.689Z,58.99
2023-05-05T20:33:28.599Z,59.58
2023-05-05T20:35:55.959Z,58.98
2023-05-05T20:38:23.203Z,59.01
2023-05-05T20:40:51.050Z,58.76
2023-05-05T20:43:19.013Z,59.13
2023-05-05T20:45:46.658Z,59.44
2023-05-05T20:48:13.941Z,59.52
2023-05-05T20:50:41.532Z,60.29
2023-05-05T20:53:09.057Z,60.83
2023-05-05T20:55:36.334Z,60.50
2023-05-05T20:58:04.757Z,60.43
2023-05-05T21:00:32.104Z,60.51
2023-05-05T21:02:59.504Z,60.38
2023-05-05T21:05:26.978Z,61.14
2023-05-05T21:07:54.678Z,61.14
2023-05-05T21:10:22.076Z,60.98
2023-05-05T21:12:49.312Z,60.72
2023-05-05T21:15:16.876Z,60.75
2023-05-05T21:17:44.245Z,61.08
2023-05-05T21:20:12.436Z,61.21
2023-05-05T21:22:40.010Z,61.16
2023-05-05T21:25:18.006Z,61.18
2023-05-05T21:27:46.248Z,61.08
2023-05-05T21:30:13.772Z,61.50
2023-05-05T21:32:41.474Z,62.25
2023-05-05T21:35:09.273Z,62.36
2023-05-05T21:37:37.703Z,62.34
2023-05-05T21:40:07.262Z,62.19
2023-05-05T21:42:34.576Z,62.48
2023-05-05T21:45:01.793Z,62.25
2023-05-05T21:47:29.113Z,62.57
2023-05-05T21:49:57.562Z,62.30
2023-05-05T21:52:24.898Z,62.45
2023-05-05T21:54:52.199Z,61.77
2023-05-05T21:57:19.480Z,62.67
2023-05-05T21:59:46.784Z,62.52
2023-05-05T22:02:14.148Z,62.61
2023-05-05T22:04:41.388Z,63.14
2023-05-05T22:07:08.731Z,63.24
2023-05-05T22:09:35.919Z,63.10
2023-05-05T22:12:03.341Z,63.64
2023-05-05T22:14:30.706Z,63.63
2023-05-05T22:16:58.067Z,63.76
2023-05-05T22:19:25.551Z,64.14
2023-05-05T22:21:53.457Z,63.97
2023-05-05T22:24:20.745Z,63.76
2023-05-05T22:26:48.078Z,64.76
2023-05-05T22:29:15.442Z,64.96
2023-05-05T22:31:42.820Z,65.00
2023-05-05T22:34:10.058Z,65.48
2023-05-05T22:36:37.384Z,65.33
2023-05-05T22:39:04.638Z,65.78
2023-05-05T22:41:31.905Z,66.12
2023-05-05T22:43:59.296Z,65.87
2023-05-05T22:46:26.574Z,65.85
2023-05-05T22:48:54.235Z,65.99
2023-05-05T22:51:21.673Z,65.71
2023-05-05T22:53:48.975Z,65.46
2023-05-05T22:56:16.734Z,65.44
2023-05-05T22:58:44.017Z,66.19
2023-05-05T23:01:11.496Z,65.96
2023-05-05T23:03:38.716Z,65.56
2023-05-05T23:06:06.154Z,65.43
2023-05-05T23:08:33.437Z,65.70
2023-05-05T23:11:00.725Z,66.13
2023-05-05T23:13:27.976Z,65.82
2023-05-05T23:15:55.391Z,65.90
2023-05-05T23:18:22.653Z,65.91
2023-05-05T23:20:49.895Z,65.93
2023-05-05T23:23:17.105Z,65.98
2023-05-05T23:25:44.966Z,65.91
2023-05-05T23:28:12.152Z,66.66
2023-05-05T23:30:39.500Z,66.05
2023-05-05T23:33:06.751Z,65.89
2023-05-05T23:35:34.270Z,65.55
2023-05-05T23:38:01.512Z,65.31
2023-05-05T23:40:28.812Z,66.35
2023-05-05T23:42:56.099Z,66.97
2023-05-05T23:45:23.422Z,67.48
2023-05-05T23:47:50.776Z,66.21
2023-05-05T23:50:18.109Z,65.89
2023-05-05T23:52:45.301Z,65.51
2023-05-05T23:55:14.563Z,65.96
2023-05-05T23:57:41.766Z,65.92
